M I D A S
Marine Information and Data Acquisition System
Tripno 435 of the Zeeleeuw from 2003-02-24 07:24:40 to 2003-02-24 15:38:59
Back to CruiseResearch ActivitiesStationsMapUnderway DataData graphs

EquipmentUnitsComment
TimeDGPSUTC
LatitudeDGPSDM.mWGS84
LongitudeDGPSDM.mWGS84
HeadingGyrodeg 
SOGDGPSknotsSpeed over ground
COGDGPSdegCourse over ground
DepthEcho soundermeters200 kHz
Missing or incorrect values are displayed as -999
Navigation data collected by the RV Zeeleeuw from 2003-02-24 07:24:40 to 2003-02-24 15:38:59
                                                                                    Next 1000 lines
Time Latitude Longitude Heading SOG COG Depth
2003-02-24 07:24:48 51°13.594 2°56.105 125.9   1 -999
2003-02-24 07:24:53 51°13.594 2°56.105 125.7   321.3 -999
2003-02-24 07:24:58 51°13.594 2°56.105 125.1   317.3 -999
2003-02-24 07:25:03 51°13.594 2°56.105 124.1   89.3 -999
2003-02-24 07:25:08 51°13.594 2°56.105 122.9 0.1 162.7 -999
2003-02-24 07:25:13 51°13.594 2°56.105 121.5 0.1 169.4 -999
2003-02-24 07:25:18 51°13.593 2°56.105 120.4 0.1 185.4 -999
2003-02-24 07:25:23 51°13.593 2°56.105 119.7 0.1 187.9 -999
2003-02-24 07:25:28 51°13.593 2°56.105 118.6 0.1 186.1 -999
2003-02-24 07:25:33 51°13.593 2°56.105 117.5 0.1 185.1 -999
2003-02-24 07:25:38 51°13.593 2°56.105 116.1 0.1 195.9 -999
2003-02-24 07:25:43 51°13.593 2°56.105 115.1 0.1 217.7 -999
2003-02-24 07:25:47 51°13.593 2°56.104 114.7 0.1 268 -999
2003-02-24 07:25:52 51°13.593 2°56.103 114.3 0.3 281.8 -999
2003-02-24 07:25:56 51°13.594 2°56.102 114 0.6 287.3 -999
2003-02-24 07:26:03 51°13.595 2°56.099 114 1 290.1 -999
2003-02-24 07:26:08 51°13.596 2°56.095 114.8 1.3 291.4 -999
2003-02-24 07:26:13 51°13.597 2°56.091 115.4 1.7 291.6 -999
2003-02-24 07:26:18 51°13.598 2°56.086 115.8 2.2 292.9 -999
2003-02-24 07:26:23 51°13.599 2°56.08 116.1 2.6 293.5 -999
2003-02-24 07:26:28 51°13.6 2°56.073 116.3 2.9 294 -999
2003-02-24 07:26:33 51°13.602 2°56.066 116.5 3.2 293.5 -999
2003-02-24 07:26:38 51°13.604 2°56.059 116.6 3.5 293.2 -999
2003-02-24 07:26:43 51°13.607 2°56.051 116.6 3.8 293.3 -999
2003-02-24 07:26:48 51°13.609 2°56.042 116.9 4 293.3 -999
2003-02-24 07:26:53 51°13.612 2°56.033 117.4 4.2 293.7 -999
2003-02-24 07:26:58 51°13.614 2°56.024 118.3 4.4 293.9 -999
2003-02-24 07:27:03 51°13.617 2°56.015 119 4.6 294.1 -999
2003-02-24 07:27:08 51°13.62 2°56.005 119.8 4.8 294.6 -999
2003-02-24 07:27:13 51°13.623 2°55.995 120.5 4.9 295.4 -999
2003-02-24 07:27:18 51°13.626 2°55.985 121.3 5 296.1 -999
2003-02-24 07:27:23 51°13.63 2°55.975 121.9 5.1 296.9 -999
2003-02-24 07:27:28 51°13.633 2°55.965 122.3 5.1 297.3 -999
2003-02-24 07:27:33 51°13.637 2°55.955 122.6 5.2 298.2 -999
2003-02-24 07:27:38 51°13.64 2°55.945 122.8 5.2 298.6 -999
2003-02-24 07:27:43 51°13.644 2°55.935 122.7 5.2 298.8 -999
2003-02-24 07:27:48 51°13.647 2°55.925 122.2 5.1 298.5 -999
2003-02-24 07:27:53 51°13.65 2°55.915 121.9 5.1 298.3 -999
2003-02-24 07:27:58 51°13.653 2°55.905 121.4 5.1 298.3 -999
2003-02-24 07:28:03 51°13.657 2°55.895 120.9 5.1 298.2 -999
2003-02-24 07:28:08 51°13.66 2°55.886 120.1 5 297.9 -999
2003-02-24 07:28:13 51°13.663 2°55.876 119.6 4.9 297.5 -999
2003-02-24 07:28:18 51°13.666 2°55.867 118.6 4.8 296.7 -999
2003-02-24 07:28:23 51°13.668 2°55.858 117.4 4.7 295.9 -999
2003-02-24 07:28:28 51°13.671 2°55.848 116.2 4.5 294.9 -999
2003-02-24 07:28:33 51°13.673 2°55.839 115.2 4.5 294.1 -999
2003-02-24 07:28:38 51°13.675 2°55.83 113.9 4.4 293.4 -999
2003-02-24 07:28:43 51°13.677 2°55.822 112.8 4.4 292.6 -999
2003-02-24 07:28:48 51°13.68 2°55.813 111.1 4.3 291.5 -999
2003-02-24 07:28:53 51°13.682 2°55.804 110.1 4.3 290.4 -999
2003-02-24 07:28:58 51°13.683 2°55.795 108.6 4.2 289.1 -999
2003-02-24 07:29:03 51°13.685 2°55.787 107.4 4 288.2 -999
2003-02-24 07:29:08 51°13.686 2°55.779 105.9 3.9 287 -999
2003-02-24 07:29:13 51°13.687 2°55.772 105 3.7 286 -999
2003-02-24 07:29:18 51°13.689 2°55.765 103.5 3.4 284.5 -999
2003-02-24 07:29:23 51°13.689 2°55.758 101.7 3.2 283.7 -999
2003-02-24 07:29:28 51°13.69 2°55.752 99.4 2.9 281.8 -999
2003-02-24 07:29:33 51°13.691 2°55.747 97.9 2.6 281.6 -999
2003-02-24 07:29:38 51°13.691 2°55.742 96.4 2.4 279.6 -999
2003-02-24 07:29:43 51°13.692 2°55.739 94.1 2 279.6 -999
2003-02-24 07:29:48 51°13.692 2°55.736 90.4 1.5 277.9 -999
2003-02-24 07:29:53 51°13.692 2°55.734 86.2 1.1 279.7 -999
2003-02-24 07:29:58 51°13.692 2°55.733 82 0.8 281.2 -999
2003-02-24 07:30:03 51°13.693 2°55.732 77.8 0.5 291.2 -999
2003-02-24 07:30:08 51°13.693 2°55.732 72.8 0.3 317.3 -999
2003-02-24 07:30:12 51°13.694 2°55.732 69.4 0.4 359.7 -999
2003-02-24 07:30:18 51°13.695 2°55.733 64.6 0.5 23.7 -999
2003-02-24 07:30:23 51°13.695 2°55.734 59.7 0.7 32.4 -999
2003-02-24 07:30:28 51°13.697 2°55.736 54.8 0.9 34.6 -999
2003-02-24 07:30:33 51°13.698 2°55.737 49.7 1 34.7 -999
2003-02-24 07:30:38 51°13.7 2°55.739 44.5 1.3 31.7 -999
2003-02-24 07:30:43 51°13.702 2°55.74 39.6 1.4 29.3 -999
2003-02-24 07:30:47 51°13.703 2°55.741 35.5 1.6 25.1 -999
2003-02-24 07:30:52 51°13.706 2°55.742 30.4 1.7 21.5 -999
2003-02-24 07:30:57 51°13.708 2°55.743 25.4 1.8 17.2 -999
2003-02-24 07:31:03 51°13.711 2°55.744 20.6 1.9 13.7 -999
2003-02-24 07:31:08 51°13.714 2°55.745 15.9 2 9.9 -999
2003-02-24 07:31:13 51°13.718 2°55.746 10.5 2.2 6.4 -999
2003-02-24 07:31:18 51°13.721 2°55.745 5.8 2.3 1.9 -999
2003-02-24 07:31:23 51°13.724 2°55.745 1.1 2.4 357.8 -999
2003-02-24 07:31:28 51°13.728 2°55.744 357.3 2.5 352.2 -999
2003-02-24 07:31:33 51°13.731 2°55.742 351.2 2.6 348.3 -999
2003-02-24 07:31:38 51°13.735 2°55.74 345.8 2.9 343.2 -999
2003-02-24 07:31:43 51°13.74 2°55.737 339.2 3.2 338.4 -999
2003-02-24 07:31:48 51°13.744 2°55.732 333.8 3.5 332.5 -999
2003-02-24 07:31:53 51°13.749 2°55.728 330.9 3.8 329.4 -999
2003-02-24 07:31:57 51°13.753 2°55.724 329.2 4.1 326.9 -999
2003-02-24 07:32:03 51°13.759 2°55.716 328.3 4.4 325.6 -999
2003-02-24 07:32:06 51°13.762 2°55.713 327.6 4.7 324.3 -999
2003-02-24 07:32:12 51°13.769 2°55.705 327.3 4.9 323.9 -999
2003-02-24 07:32:17 51°13.775 2°55.698 327.2 5.2 323.4 -999
2003-02-24 07:32:23 51°13.782 2°55.689 327.2 5.4 323.3 -999
2003-02-24 07:32:28 51°13.788 2°55.682 327.3 5.6 323.2 -999
2003-02-24 07:32:33 51°13.795 2°55.674 327.7 5.8 323.7 -999
2003-02-24 07:32:37 51°13.8 2°55.668 328.3 5.9 324.2 -999
2003-02-24 07:32:43 51°13.809 2°55.659 329.1 6.1 325.1 -999
2003-02-24 07:32:48 51°13.816 2°55.651 330 6.2 325.8 -999
2003-02-24 07:32:53 51°13.824 2°55.643 330.9 6.3 326.4 -999
2003-02-24 07:32:58 51°13.831 2°55.635 331.7 6.4 327 -999
2003-02-24 07:33:03 51°13.839 2°55.628 332.6 6.5 327.8 -999
2003-02-24 07:33:08 51°13.847 2°55.62 333.4 6.7 328.7 -999
2003-02-24 07:33:13 51°13.855 2°55.612 334.5 6.8 329.3 -999
2003-02-24 07:33:18 51°13.864 2°55.605 335.4 7 330.1 -999
2003-02-24 07:33:23 51°13.873 2°55.598 336.7 7.1 331.4 -999
2003-02-24 07:33:27 51°13.88 2°55.592 337.7 7.2 332.8 -999
2003-02-24 07:33:32 51°13.889 2°55.585 338.9 7.4 334.2 -999
2003-02-24 07:33:38 51°13.901 2°55.577 340.2 7.4 335 -999
2003-02-24 07:33:43 51°13.91 2°55.57 341 7.5 335.9 -999
2003-02-24 07:33:48 51°13.92 2°55.563 341.3 5.9 336.4 -999
2003-02-24 07:33:53 51°13.93 2°55.557 341.3 6.5 336.7 -999
2003-02-24 07:33:58 51°13.94 2°55.55 341.4 7.5 336.8 -999
2003-02-24 07:34:03 51°13.949 2°55.543 341.6 7.8 336.8 -999
2003-02-24 07:34:08 51°13.959 2°55.536 341.6 7.9 336.8 -999
2003-02-24 07:34:12 51°13.967 2°55.531 341.4 7.9 336.8 -999
2003-02-24 07:34:16 51°13.975 2°55.526 341.6 7.9 336.9 -999
2003-02-24 07:34:23 51°13.989 2°55.516 342.5 7.9 337.4 -999
2003-02-24 07:34:28 51°14 2°55.509 342.5 7.9 337.5 -999
2003-02-24 07:34:33 51°14.01 2°55.502 341.6 7.9 337.2 -999
2003-02-24 07:34:38 51°14.02 2°55.495 340.4 7.9 336 -999
2003-02-24 07:34:43 51°14.03 2°55.488 340.2 7.9 335.6 -999
2003-02-24 07:34:47 51°14.038 2°55.482 340.4 8 335.6 -999
2003-02-24 07:34:52 51°14.048 2°55.475 340.4 8 335.8 -999
2003-02-24 07:34:57 51°14.058 2°55.467 340.4 8 335.7 -999
2003-02-24 07:35:03 51°14.07 2°55.459 340.2 8 335.4 -999
2003-02-24 07:35:08 51°14.081 2°55.451 339.3 8 334.8 -999
2003-02-24 07:35:13 51°14.091 2°55.444 339.1 8 334.3 -999
2003-02-24 07:35:17 51°14.099 2°55.438 339.2 8.1 334.4 -999
2003-02-24 07:35:23 51°14.111 2°55.428 339.3 8.1 334.5 -999
2003-02-24 07:35:28 51°14.121 2°55.42 338.9 8.1 334.2 -999
2003-02-24 07:35:33 51°14.131 2°55.412 338.5 8.1 333.9 -999
2003-02-24 07:35:37 51°14.139 2°55.406 337.5 8.2 333.1 -999
2003-02-24 07:35:43 51°14.152 2°55.395 336.9 8.2 332.4 -999
2003-02-24 07:35:48 51°14.162 2°55.387 336.3 8.2 331.7 -999
2003-02-24 07:35:53 51°14.172 2°55.378 335.6 8.3 330.9 -999
2003-02-24 07:35:58 51°14.182 2°55.368 334.1 8.3 329.9 -999
2003-02-24 07:36:03 51°14.191 2°55.358 332.4 8.3 328.4 -999
2003-02-24 07:36:08 51°14.201 2°55.348 330.3 8.4 326.9 -999
2003-02-24 07:36:12 51°14.208 2°55.339 328.8 8.4 324.9 -999
2003-02-24 07:36:17 51°14.218 2°55.328 327.3 8.4 323.3 -999
2003-02-24 07:36:23 51°14.228 2°55.313 325.6 8.4 321.5 -999
2003-02-24 07:36:28 51°14.237 2°55.301 323.9 8.4 319.6 -999
2003-02-24 07:36:33 51°14.246 2°55.288 322.2 8.4 318.4 -999
2003-02-24 07:36:38 51°14.254 2°55.275 321.3 8.5 317.2 -999
2003-02-24 07:36:43 51°14.263 2°55.262 320.4 8.5 316.2 -999
2003-02-24 07:36:48 51°14.271 2°55.249 319.9 8.5 315.3 -999
2003-02-24 07:36:53 51°14.279 2°55.235 319 8.5 314.4 -999
2003-02-24 07:36:58 51°14.287 2°55.221 317.7 8.5 313.5 -999
2003-02-24 07:37:03 51°14.295 2°55.207 316.5 8.5 311.9 -999
2003-02-24 07:37:08 51°14.302 2°55.192 315.3 8.5 310.7 -999
2003-02-24 07:37:13 51°14.31 2°55.178 314.2 8.5 309.7 -999
2003-02-24 07:37:18 51°14.317 2°55.163 313.8 8.5 309.1 -999
2003-02-24 07:37:23 51°14.325 2°55.149 313.7 8.6 308.7 -999
2003-02-24 07:37:28 51°14.332 2°55.134 314 8.6 309 -999
2003-02-24 07:37:33 51°14.34 2°55.119 314.6 8.6 309.2 -999
2003-02-24 07:37:38 51°14.348 2°55.105 314.7 8.6 309.4 -999
2003-02-24 07:37:43 51°14.355 2°55.09 314.1 8.6 308.8 -999
2003-02-24 07:37:48 51°14.362 2°55.075 312.4 8.6 308 -999
2003-02-24 07:37:53 51°14.369 2°55.059 310.5 8.6 306.4 -999
2003-02-24 07:37:58 51°14.376 2°55.043 308.2 8.7 304.6 -999
2003-02-24 07:38:03 51°14.382 2°55.026 305.6 8.9 302.3 -999
2003-02-24 07:38:08 51°14.388 2°55.008 303.1 9 300.2 -999
2003-02-24 07:38:12 51°14.392 2°54.993 301.1 9.2 298.1 -999
2003-02-24 07:38:18 51°14.399 2°54.97 298.5 9.5 295.8 -999
2003-02-24 07:38:23 51°14.404 2°54.949 295.3 9.8 293.2 -999
2003-02-24 07:38:28 51°14.409 2°54.927 292.9 10.1 290.6 -999
2003-02-24 07:38:32 51°14.412 2°54.91 289.8 10.3 287.8 -999
2003-02-24 07:38:38 51°14.416 2°54.881 286.6 10.7 284.7 -999
2003-02-24 07:38:43 51°14.418 2°54.857 282.9 11 281.2 -999
2003-02-24 07:38:48 51°14.419 2°54.831 278 11.3 277.3 -999
2003-02-24 07:38:53 51°14.419 2°54.806 273.7 11.5 273.2 -999
2003-02-24 07:38:58 51°14.418 2°54.78 269.6 11.7 269.2 -999
2003-02-24 07:39:03 51°14.416 2°54.754 267.2 11.8 265.6 -999
2003-02-24 07:39:08 51°14.414 2°54.727 264.8 12 263.3 -999
2003-02-24 07:39:13 51°14.411 2°54.7 263.1 12.2 261.1 -999
2003-02-24 07:39:18 51°14.407 2°54.673 261.1 12.4 259.5 -999
2003-02-24 07:39:23 51°14.403 2°54.646 259.4 12.5 257.8 -999
2003-02-24 07:39:28 51°14.399 2°54.619 258 12.6 256.5 -999
2003-02-24 07:39:33 51°14.394 2°54.593 256.6 12.6 254.9 -999
2003-02-24 07:39:38 51°14.389 2°54.566 255.4 12.6 253.5 -999
2003-02-24 07:39:43 51°14.384 2°54.539 254.2 12.6 252.6 -999
2003-02-24 07:39:48 51°14.378 2°54.513 253.5 12.7 251.8 -999
2003-02-24 07:39:53 51°14.372 2°54.487 252.5 12.6 251 -999
2003-02-24 07:39:58 51°14.367 2°54.461 252.2 12.6 250.8 -999
2003-02-24 07:40:03 51°14.36 2°54.435 251.3 12.5 249.9 -999
2003-02-24 07:40:08 51°14.354 2°54.409 250.9 12.5 249.4 -999
2003-02-24 07:40:13 51°14.347 2°54.383 250 12.5 248.3 -999
2003-02-24 07:40:18 51°14.341 2°54.358 249.6 12.5 247.9 -999
2003-02-24 07:40:23 51°14.334 2°54.332 249.6 12.5 247.5 -999
2003-02-24 07:40:28 51°14.327 2°54.307 249.3 12.5 247.2 -999
2003-02-24 07:40:33 51°14.321 2°54.282 249.1 12.4 246.8 -999
2003-02-24 07:40:38 51°14.314 2°54.257 249.4 12.4 246.8 -999
2003-02-24 07:40:43 51°14.307 2°54.231 250.3 12.4 247.3 -999
2003-02-24 07:40:47 51°14.302 2°54.211 250.9 12.4 247.8 -999
2003-02-24 07:40:52 51°14.296 2°54.185 251.7 12.4 248.9 -999
2003-02-24 07:40:58 51°14.289 2°54.155 251.8 12.4 249.1 -999
2003-02-24 07:41:03 51°14.283 2°54.129 252.6 12.4 249.8 -999
2003-02-24 07:41:07 51°14.278 2°54.108 253.3 12.4 250.1 -999
2003-02-24 07:41:12 51°14.273 2°54.082 254.2 12.4 251.5 -999
2003-02-24 07:41:18 51°14.267 2°54.051 254.9 12.4 252 -999
2003-02-24 07:41:23 51°14.262 2°54.025 255.1 12.4 252.6 -999
2003-02-24 07:41:28 51°14.256 2°53.999 254.6 12.4 251.9 -999
2003-02-24 07:41:33 51°14.25 2°53.973 252.2 12.3 250.6 -999
2003-02-24 07:41:38 51°14.243 2°53.949 249.9 12.3 248.1 -999
2003-02-24 07:41:43 51°14.236 2°53.924 248.7 12.3 246.4 -999
2003-02-24 07:41:48 51°14.229 2°53.899 248.2 12.3 245.6 -999
2003-02-24 07:41:53 51°14.222 2°53.874 249.1 12.3 246 -999
2003-02-24 07:41:57 51°14.217 2°53.853 250.5 12.3 247.2 -999
2003-02-24 07:42:03 51°14.209 2°53.823 250.5 12.4 247.9 -999
2003-02-24 07:42:08 51°14.202 2°53.798 249.7 12.5 247.2 -999
2003-02-24 07:42:13 51°14.195 2°53.772 249.3 12.6 246.7 -999
2003-02-24 07:42:17 51°14.189 2°53.751 248.6 12.7 246 -999
2003-02-24 07:42:23 51°14.18 2°53.72 248.3 12.8 245.4 -999
2003-02-24 07:42:28 51°14.172 2°53.694 247.8 13 245.2 -999
2003-02-24 07:42:33 51°14.164 2°53.668 247 13 243.9 -999
2003-02-24 07:42:38 51°14.156 2°53.642 246.4 13.1 243.6 -999
2003-02-24 07:42:43 51°14.147 2°53.617 245.3 13.1 242.7 -999
2003-02-24 07:42:48 51°14.139 2°53.591 244.6 13.2 241.8 -999
2003-02-24 07:42:52 51°14.131 2°53.571 243.8 13.3 241 -999
2003-02-24 07:42:58 51°14.12 2°53.54 243.7 13.3 240.5 -999
2003-02-24 07:43:03 51°14.111 2°53.515 243.4 13.3 240.2 -999
2003-02-24 07:43:08 51°14.102 2°53.489 243 13.3 239.9 -999
2003-02-24 07:43:12 51°14.094 2°53.469 243.1 13.3 240.1 -999
2003-02-24 07:43:17 51°14.085 2°53.443 243.3 13.4 240.2 -999
2003-02-24 07:43:23 51°14.074 2°53.412 243.8 13.4 240.8 -999
2003-02-24 07:43:28 51°14.065 2°53.386 243.8 13.4 240.7 -999
2003-02-24 07:43:33 51°14.055 2°53.36 243.8 13.4 240.9 -999
2003-02-24 07:43:38 51°14.046 2°53.334 243.8 13.4 240.8 -999
2003-02-24 07:43:43 51°14.037 2°53.308 243.8 13.5 240.9 -999
2003-02-24 07:43:48 51°14.028 2°53.282 243.8 13.5 240.8 -999
2003-02-24 07:43:52 51°14.021 2°53.261 243.8 13.5 240.8 -999
2003-02-24 07:43:58 51°14.01 2°53.229 243.7 13.5 240.6 -999
2003-02-24 07:44:02 51°14.003 2°53.208 243.7 13.5 240.8 -999
2003-02-24 07:44:08 51°13.991 2°53.177 243.6 13.5 240.7 -999
2003-02-24 07:44:13 51°13.982 2°53.151 243.4 13.5 240.7 -999
2003-02-24 07:44:18 51°13.973 2°53.125 243.4 13.6 240.6 -999
2003-02-24 07:44:23 51°13.964 2°53.099 243.2 13.6 240.6 -999
2003-02-24 07:44:28 51°13.954 2°53.073 242.9 13.5 240.5 -999
2003-02-24 07:44:33 51°13.945 2°53.047 242.6 13.5 240.1 -999
2003-02-24 07:44:38 51°13.935 2°53.022 242.3 13.5 239.4 -999
2003-02-24 07:44:43 51°13.926 2°52.996 242.3 13.5 239.3 -999
2003-02-24 07:44:48 51°13.916 2°52.97 242.4 13.5 239.3 -999
2003-02-24 07:44:53 51°13.907 2°52.945 242.6 13.5 239.5 -999
2003-02-24 07:44:58 51°13.897 2°52.919 242.7 13.5 239.6 -999
2003-02-24 07:45:03 51°13.888 2°52.893 242.8 13.5 239.7 -999
2003-02-24 07:45:08 51°13.878 2°52.867 242.6 13.5 239.7 -999
2003-02-24 07:45:12 51°13.871 2°52.847 242.7 13.5 239.5 -999
2003-02-24 07:45:18 51°13.859 2°52.816 242.9 13.5 239.9 -999
2003-02-24 07:45:23 51°13.85 2°52.79 242.9 13.5 239.8 -999
2003-02-24 07:45:28 51°13.84 2°52.764 243 13.5 240 -999
2003-02-24 07:45:33 51°13.831 2°52.739 242.6 13.5 239.6 -999
2003-02-24 07:45:38 51°13.821 2°52.713 242.6 13.5 239.5 -999
2003-02-24 07:45:43 51°13.812 2°52.687 242.9 13.5 239.7 -999
2003-02-24 07:45:48 51°13.803 2°52.661 242.9 13.5 239.8 -999
2003-02-24 07:45:53 51°13.793 2°52.636 242.9 13.5 239.6 -999
2003-02-24 07:45:58 51°13.784 2°52.61 243.2 13.5 239.9 -999
2003-02-24 07:46:03 51°13.774 2°52.584 242.8 13.5 239.7 -999
2003-02-24 07:46:08 51°13.765 2°52.558 243.2 13.5 239.9 -999
2003-02-24 07:46:13 51°13.756 2°52.533 243.2 13.5 240 -999
2003-02-24 07:46:18 51°13.746 2°52.507 242.9 13.5 239.8 -999
2003-02-24 07:46:23 51°13.737 2°52.481 242.7 13.5 239.5 -999
2003-02-24 07:46:28 51°13.728 2°52.456 243 13.5 239.8 -999
2003-02-24 07:46:33 51°13.718 2°52.43 243.1 13.5 240.1 -999
2003-02-24 07:46:37 51°13.711 2°52.409 243.2 13.5 240.4 -999
2003-02-24 07:46:43 51°13.7 2°52.378 243 13.5 240.1 -999
2003-02-24 07:46:48 51°13.69 2°52.352 242.8 13.5 239.8 -999
2003-02-24 07:46:53 51°13.681 2°52.327 242.7 13.5 239.7 -999
2003-02-24 07:46:58 51°13.671 2°52.301 243 13.5 239.8 -999
2003-02-24 07:47:03 51°13.662 2°52.275 243.1 13.5 239.8 -999
2003-02-24 07:47:08 51°13.653 2°52.249 242.8 13.5 239.9 -999
2003-02-24 07:47:13 51°13.643 2°52.224 242.7 13.5 239.6 -999
2003-02-24 07:47:18 51°13.634 2°52.198 243.1 13.5 240 -999
2003-02-24 07:47:23 51°13.624 2°52.172 243 13.5 239.7 -999
2003-02-24 07:47:28 51°13.615 2°52.147 242.5 13.5 239.5 -999
2003-02-24 07:47:32 51°13.607 2°52.126 242.7 13.5 239.6 -999
2003-02-24 07:47:38 51°13.596 2°52.095 243 13.5 239.8 -999
2003-02-24 07:47:43 51°13.587 2°52.069 243 13.5 239.9 -999
2003-02-24 07:47:48 51°13.577 2°52.044 242.9 13.5 239.7 -999
2003-02-24 07:47:53 51°13.567 2°52.018 242.6 13.5 239.3 -999
2003-02-24 07:47:58 51°13.558 2°51.992 243 13.5 239.7 -999
2003-02-24 07:48:03 51°13.548 2°51.966 243.1 13.5 239.8 -999
2003-02-24 07:48:08 51°13.539 2°51.941 243 13.6 239.8 -999
2003-02-24 07:48:12 51°13.531 2°51.92 243 13.6 239.7 -999
2003-02-24 07:48:18 51°13.52 2°51.889 243.1 13.6 239.7 -999
2003-02-24 07:48:23 51°13.51 2°51.863 243.1 13.6 239.8 -999
2003-02-24 07:48:27 51°13.503 2°51.843 243.1 13.5 239.7 -999
2003-02-24 07:48:32 51°13.493 2°51.817 242.7 13.5 239.4 -999
2003-02-24 07:48:37 51°13.483 2°51.791 242.8 13.5 239.4 -999
2003-02-24 07:48:42 51°13.474 2°51.766 242.9 13.5 239.3 -999
2003-02-24 07:48:48 51°13.462 2°51.735 243 13.5 239.5 -999
2003-02-24 07:48:53 51°13.453 2°51.709 243.6 13.5 239.9 -999
2003-02-24 07:48:58 51°13.444 2°51.683 243.7 13.5 240.4 -999
2003-02-24 07:49:03 51°13.435 2°51.657 243.6 13.5 240.4 -999
2003-02-24 07:49:08 51°13.425 2°51.631 243.5 13.5 240.4 -999
2003-02-24 07:49:13 51°13.416 2°51.605 243.1 13.5 240.1 -999
2003-02-24 07:49:18 51°13.407 2°51.579 242.9 13.5 239.8 -999
2003-02-24 07:49:23 51°13.397 2°51.554 242.7 13.5 239.7 -999
2003-02-24 07:49:27 51°13.39 2°51.533 243 13.5 240 -999
2003-02-24 07:49:32 51°13.38 2°51.507 243 13.5 239.9 -999
2003-02-24 07:49:37 51°13.371 2°51.481 243 13.5 240.1 -999
2003-02-24 07:49:43 51°13.36 2°51.45 243.1 13.5 240.1 -999
2003-02-24 07:49:48 51°13.351 2°51.424 243 13.5 240 -999
2003-02-24 07:49:52 51°13.343 2°51.404 242.7 13.5 239.8 -999
2003-02-24 07:49:58 51°13.332 2°51.373 242.8 13.5 239.8 -999
2003-02-24 07:50:03 51°13.322 2°51.347 242.8 13.5 239.8 -999
2003-02-24 07:50:08 51°13.313 2°51.321 243 13.5 239.9 -999
2003-02-24 07:50:13 51°13.304 2°51.295 243 13.5 239.9 -999
2003-02-24 07:50:18 51°13.294 2°51.269 242.8 13.5 239.7 -999
2003-02-24 07:50:23 51°13.285 2°51.243 242.7 13.5 239.5 -999
2003-02-24 07:50:28 51°13.275 2°51.218 243 13.5 239.7 -999
2003-02-24 07:50:33 51°13.266 2°51.192 243 13.5 239.7 -999
2003-02-24 07:50:38 51°13.257 2°51.166 243.1 13.5 239.9 -999
2003-02-24 07:50:43 51°13.247 2°51.14 243.4 13.5 240.1 -999
2003-02-24 07:50:48 51°13.238 2°51.114 243.3 13.5 240.1 -999
2003-02-24 07:50:52 51°13.23 2°51.094 243 13.5 239.9 -999
2003-02-24 07:50:57 51°13.221 2°51.068 242.7 13.5 239.6 -999
2003-02-24 07:51:03 51°13.209 2°51.037 242.9 13.5 239.9 -999
2003-02-24 07:51:08 51°13.2 2°51.011 242.8 13.5 239.7 -999
2003-02-24 07:51:13 51°13.19 2°50.985 242.8 13.5 239.7 -999
2003-02-24 07:51:18 51°13.181 2°50.96 242.8 13.6 239.7 -999
2003-02-24 07:51:23 51°13.171 2°50.934 242.6 13.6 239.5 -999
2003-02-24 07:51:28 51°13.162 2°50.908 242.6 13.6 239.6 -999
2003-02-24 07:51:33 51°13.152 2°50.882 243 13.6 239.8 -999
2003-02-24 07:51:38 51°13.143 2°50.856 243.2 13.6 240.1 -999
2003-02-24 07:51:43 51°13.133 2°50.83 243.1 13.6 240 -999
2003-02-24 07:51:47 51°13.126 2°50.809 243.1 13.6 240 -999
2003-02-24 07:51:53 51°13.114 2°50.778 243 13.6 239.8 -999
2003-02-24 07:51:58 51°13.105 2°50.752 243.1 13.6 239.9 -999
2003-02-24 07:52:03 51°13.095 2°50.726 243.1 13.6 239.9 -999
2003-02-24 07:52:08 51°13.086 2°50.7 243.1 13.6 240.1 -999
2003-02-24 07:52:13 51°13.077 2°50.674 243.5 13.6 240.4 -999
2003-02-24 07:52:18 51°13.067 2°50.648 243.1 13.6 240 -999
2003-02-24 07:52:23 51°13.058 2°50.622 243.2 13.6 240.2 -999
2003-02-24 07:52:28 51°13.048 2°50.596 243.1 13.6 239.8 -999
2003-02-24 07:52:33 51°13.039 2°50.57 243 13.6 239.7 -999
2003-02-24 07:52:38 51°13.029 2°50.544 242.7 13.6 239.4 -999
2003-02-24 07:52:43 51°13.02 2°50.518 243.1 13.6 239.8 -999
2003-02-24 07:52:48 51°13.011 2°50.492 243.5 13.6 240 -999
2003-02-24 07:52:53 51°13.001 2°50.466 243.5 13.6 240.4 -999
2003-02-24 07:52:58 51°12.992 2°50.44 243.1 13.6 240.2 -999
2003-02-24 07:53:03 51°12.982 2°50.414 243.2 13.6 240.2 -999
2003-02-24 07:53:08 51°12.973 2°50.388 243.2 13.6 240.2 -999
2003-02-24 07:53:13 51°12.964 2°50.361 243.7 13.7 240.6 -999
2003-02-24 07:53:18 51°12.954 2°50.335 243.4 13.7 240.3 -999
2003-02-24 07:53:23 51°12.945 2°50.309 243.4 13.6 240.4 -999
2003-02-24 07:53:28 51°12.935 2°50.283 243 13.6 239.9 -999
2003-02-24 07:53:32 51°12.928 2°50.262 243 13.7 240 -999
2003-02-24 07:53:37 51°12.918 2°50.236 243.1 13.7 239.9 -999
2003-02-24 07:53:43 51°12.907 2°50.204 243.5 13.7 240.2 -999
2003-02-24 07:53:48 51°12.898 2°50.178 243.4 13.7 240.1 -999
2003-02-24 07:53:53 51°12.889 2°50.152 243.1 13.6 239.9 -999
2003-02-24 07:53:57 51°12.881 2°50.131 243.2 13.6 240 -999
2003-02-24 07:54:02 51°12.872 2°50.105 243.3 13.6 240.2 -999
2003-02-24 07:54:08 51°12.861 2°50.074 243.5 13.6 240.4 -999
2003-02-24 07:54:13 51°12.852 2°50.047 243.4 13.6 240.4 -999
2003-02-24 07:54:17 51°12.844 2°50.027 243.1 13.6 240.2 -999
2003-02-24 07:54:23 51°12.833 2°49.995 243 13.6 240 -999
2003-02-24 07:54:28 51°12.823 2°49.97 243.1 13.6 240 -999
2003-02-24 07:54:33 51°12.814 2°49.943 243.6 13.6 240.3 -999
2003-02-24 07:54:38 51°12.805 2°49.917 243.4 13.6 240.2 -999
2003-02-24 07:54:43 51°12.796 2°49.892 243 13.5 240.2 -999
2003-02-24 07:54:48 51°12.786 2°49.866 242.9 13.5 239.7 -999
2003-02-24 07:54:52 51°12.779 2°49.845 243.2 13.5 240 -999
2003-02-24 07:54:58 51°12.767 2°49.814 243.4 13.5 240.1 -999
2003-02-24 07:55:03 51°12.758 2°49.788 243.4 13.5 240.3 -999
2003-02-24 07:55:08 51°12.749 2°49.762 243.7 13.5 240.4 -999
2003-02-24 07:55:13 51°12.74 2°49.736 243.4 13.5 240.3 -999
2003-02-24 07:55:18 51°12.731 2°49.71 243.3 13.5 240 -999
2003-02-24 07:55:23 51°12.721 2°49.684 243.1 13.5 239.9 -999
2003-02-24 07:55:28 51°12.712 2°49.659 243 13.5 239.5 -999
2003-02-24 07:55:33 51°12.702 2°49.633 243.3 13.5 239.8 -999
2003-02-24 07:55:38 51°12.693 2°49.607 243.3 13.5 239.9 -999
2003-02-24 07:55:43 51°12.684 2°49.581 243.6 13.5 240.2 -999
2003-02-24 07:55:48 51°12.675 2°49.555 243.6 13.5 240.3 -999
2003-02-24 07:55:52 51°12.667 2°49.535 243.4 13.5 240.2 -999
2003-02-24 07:55:58 51°12.656 2°49.503 243.3 13.5 240 -999
2003-02-24 07:56:03 51°12.647 2°49.478 243.1 13.5 239.8 -999
2003-02-24 07:56:07 51°12.639 2°49.457 243.1 13.5 239.9 -999
2003-02-24 07:56:13 51°12.628 2°49.426 243.4 13.5 240.2 -999
2003-02-24 07:56:18 51°12.619 2°49.4 243.7 13.6 240.5 -999
2003-02-24 07:56:23 51°12.609 2°49.374 243.4 13.6 240.3 -999
2003-02-24 07:56:28 51°12.6 2°49.348 243.4 13.6 240.1 -999
2003-02-24 07:56:33 51°12.591 2°49.322 243.1 13.5 240 -999
2003-02-24 07:56:38 51°12.581 2°49.296 243.1 13.5 240.1 -999
2003-02-24 07:56:43 51°12.572 2°49.27 243.5 13.5 240.1 -999
2003-02-24 07:56:48 51°12.563 2°49.244 243.5 13.5 240.2 -999
2003-02-24 07:56:53 51°12.553 2°49.218 243.1 13.6 239.9 -999
2003-02-24 07:56:58 51°12.543 2°49.192 243.2 13.6 239.8 -999
2003-02-24 07:57:03 51°12.534 2°49.166 243.3 13.6 239.9 -999
2003-02-24 07:57:08 51°12.525 2°49.14 243.1 13.5 239.9 -999
2003-02-24 07:57:13 51°12.515 2°49.114 243.1 13.6 239.8 -999
2003-02-24 07:57:18 51°12.506 2°49.088 243.4 13.6 240.2 -999
2003-02-24 07:57:23 51°12.496 2°49.062 243.6 13.6 240.2 -999
2003-02-24 07:57:28 51°12.487 2°49.036 243.6 13.6 240.3 -999
2003-02-24 07:57:33 51°12.478 2°49.01 243.3 13.6 240.1 -999
2003-02-24 07:57:38 51°12.468 2°48.984 243 13.6 239.8 -999
2003-02-24 07:57:43 51°12.459 2°48.958 243.1 13.6 240 -999
2003-02-24 07:57:48 51°12.449 2°48.932 243.2 13.6 240.1 -999
2003-02-24 07:57:53 51°12.44 2°48.906 243.3 13.6 240.2 -999
2003-02-24 07:57:58 51°12.43 2°48.88 243.3 13.6 240.1 -999
2003-02-24 07:58:03 51°12.421 2°48.854 243.3 13.6 240.2 -999
2003-02-24 07:58:07 51°12.413 2°48.834 243.3 13.6 240.1 -999
2003-02-24 07:58:12 51°12.404 2°48.807 243.1 13.6 240 -999
2003-02-24 07:58:18 51°12.393 2°48.776 243.3 13.7 240.2 -999
2003-02-24 07:58:23 51°12.383 2°48.75 243.6 13.6 240.3 -999
2003-02-24 07:58:28 51°12.374 2°48.724 243.4 13.7 240.4 -999
2003-02-24 07:58:33 51°12.364 2°48.698 243.3 13.7 240.2 -999
2003-02-24 07:58:38 51°12.355 2°48.672 243.1 13.7 240.1 -999
2003-02-24 07:58:43 51°12.345 2°48.645 243.1 13.7 240 -999
2003-02-24 07:58:48 51°12.336 2°48.619 243.1 13.7 240.4 -999
2003-02-24 07:58:53 51°12.327 2°48.593 243.2 13.7 240.7 -999
2003-02-24 07:58:58 51°12.318 2°48.566 244 13.7 241 -999
2003-02-24 07:59:03 51°12.309 2°48.539 244.9 13.7 242.1 -999
2003-02-24 07:59:08 51°12.3 2°48.512 245.3 13.7 242.4 -999
2003-02-24 07:59:13 51°12.292 2°48.485 246 13.7 242.8 -999
2003-02-24 07:59:18 51°12.283 2°48.458 246 13.8 243.1 -999
2003-02-24 07:59:23 51°12.275 2°48.431 246.5 13.8 243.4 -999
2003-02-24 07:59:28 51°12.267 2°48.404 246.6 13.8 243.8 -999
2003-02-24 07:59:33 51°12.258 2°48.376 246.6 13.7 244 -999
2003-02-24 07:59:38 51°12.25 2°48.349 246.7 13.8 243.9 -999
2003-02-24 07:59:43 51°12.241 2°48.322 246.3 13.8 243.8 -999
2003-02-24 07:59:48 51°12.232 2°48.295 246.1 13.8 243.3 -999
2003-02-24 07:59:53 51°12.224 2°48.268 246.1 13.8 243.4 -999
2003-02-24 07:59:58 51°12.216 2°48.241 246.3 13.8 243.4 -999
2003-02-24 08:00:03 51°12.207 2°48.213 246.5 13.7 243.7 -999
2003-02-24 08:00:08 51°12.198 2°48.186 246.4 13.8 243.5 -999
2003-02-24 08:00:13 51°12.19 2°48.159 246.6 13.8 243.7 -999
2003-02-24 08:00:18 51°12.182 2°48.132 246.7 13.8 243.6 -999
2003-02-24 08:00:23 51°12.173 2°48.105 246.4 13.7 243.5 -999
2003-02-24 08:00:28 51°12.165 2°48.078 246.3 13.7 243.6 -999
2003-02-24 08:00:33 51°12.156 2°48.05 246.3 13.7 243.5 -999
2003-02-24 08:00:38 51°12.148 2°48.023 246.4 13.8 243.5 -999
2003-02-24 08:00:43 51°12.139 2°47.996 246.4 13.7 243.5 -999
2003-02-24 08:00:48 51°12.13 2°47.969 246.1 13.7 243.3 -999
2003-02-24 08:00:53 51°12.122 2°47.942 246 13.7 243 -999
2003-02-24 08:00:58 51°12.113 2°47.915 246.1 13.8 243.1 -999
2003-02-24 08:01:03 51°12.105 2°47.887 246.7 13.8 243.3 -999
2003-02-24 08:01:08 51°12.096 2°47.86 246.7 13.7 243.7 -999
2003-02-24 08:01:13 51°12.087 2°47.833 246.5 13.7 243.5 -999
2003-02-24 08:01:18 51°12.079 2°47.806 246.4 13.7 243.3 -999
2003-02-24 08:01:23 51°12.07 2°47.779 246.4 13.8 243.2 -999
2003-02-24 08:01:28 51°12.062 2°47.752 246.3 13.8 243.1 -999
2003-02-24 08:01:33 51°12.053 2°47.724 246.3 13.8 243.2 -999
2003-02-24 08:01:38 51°12.044 2°47.697 246.5 13.8 243.2 -999
2003-02-24 08:01:43 51°12.036 2°47.67 246.5 13.8 243.2 -999
2003-02-24 08:01:48 51°12.027 2°47.643 246.4 13.8 243.3 -999
2003-02-24 08:01:53 51°12.019 2°47.616 246.6 13.8 243.1 -999
2003-02-24 08:01:57 51°12.012 2°47.594 246.6 13.7 243.3 -999
2003-02-24 08:02:03 51°12 2°47.561 246.1 13.7 243.1 -999
2003-02-24 08:02:08 51°11.991 2°47.533 246.5 13.7 243.3 -999
2003-02-24 08:02:13 51°11.984 2°47.507 246.2 13.8 243.1 -999
2003-02-24 08:02:17 51°11.977 2°47.486 246.3 13.8 243 -999
2003-02-24 08:02:23 51°11.967 2°47.453 246.7 13.8 243.6 -999
2003-02-24 08:02:28 51°11.958 2°47.426 246.6 13.8 243.6 -999
2003-02-24 08:02:33 51°11.95 2°47.398 246.7 13.8 243.8 -999
2003-02-24 08:02:37 51°11.943 2°47.376 246.4 13.8 243.7 -999
2003-02-24 08:02:42 51°11.934 2°47.349 246.3 13.8 243.4 -999
2003-02-24 08:02:47 51°11.925 2°47.321 246.5 13.8 243.5 -999
2003-02-24 08:02:52 51°11.916 2°47.294 246.7 13.8 243.7 -999
2003-02-24 08:02:57 51°11.907 2°47.266 246.4 13.8 243.5 -999
2003-02-24 08:03:02 51°11.899 2°47.239 246.3 13.8 243.5 -999
2003-02-24 08:03:07 51°11.89 2°47.211 246.1 13.8 243.4 -999
2003-02-24 08:03:12 51°11.881 2°47.184 246.2 13.8 243.5 -999
2003-02-24 08:03:17 51°11.872 2°47.156 246.4 13.8 243.7 -999
2003-02-24 08:03:22 51°11.864 2°47.129 246.6 13.8 243.7 -999
2003-02-24 08:03:27 51°11.855 2°47.102 246.3 13.8 243.5 -999
2003-02-24 08:03:31 51°11.849 2°47.079 246 13.8 243.1 -999
2003-02-24 08:03:36 51°11.843 2°47.055 246 13.8 243.2 -999
2003-02-24 08:03:41 51°11.834 2°47.028 246.2 13.8 243.4 -999
2003-02-24 08:03:46 51°11.826 2°47.001 246.4 13.8 243.7 -999
2003-02-24 08:03:51 51°11.817 2°46.974 246.6 13.8 243.8 -999
2003-02-24 08:03:56 51°11.808 2°46.946 246.3 13.8 243.8 -999
2003-02-24 08:04:01 51°11.8 2°46.92 246.2 13.8 243.4 -999
2003-02-24 08:04:05 51°11.793 2°46.898 246.3 13.8 243.6 -999
2003-02-24 08:04:11 51°11.783 2°46.865 246.1 13.7 243.4 -999
2003-02-24 08:04:15 51°11.775 2°46.842 246.2 13.8 243.5 -999
2003-02-24 08:04:20 51°11.766 2°46.815 246.6 13.8 243.6 -999
2003-02-24 08:04:25 51°11.757 2°46.787 246.6 13.8 243.8 -999
2003-02-24 08:04:30 51°11.749 2°46.76 246 13.8 243.6 -999
2003-02-24 08:04:35 51°11.74 2°46.733 245.8 13.8 243.3 -999
2003-02-24 08:04:40 51°11.731 2°46.706 246.1 13.8 243.3 -999
2003-02-24 08:04:45 51°11.723 2°46.678 246.1 13.8 243.6 -999
2003-02-24 08:04:50 51°11.714 2°46.651 246.4 13.8 243.6 -999
2003-02-24 08:04:55 51°11.705 2°46.624 246.7 13.8 243.9 -999
2003-02-24 08:05:00 51°11.697 2°46.596 246.2 13.8 243.8 -999
2003-02-24 08:05:05 51°11.688 2°46.569 246.4 13.8 243.5 -999
2003-02-24 08:05:10 51°11.68 2°46.542 246.4 13.8 243.6 -999
2003-02-24 08:05:15 51°11.671 2°46.515 246.4 13.8 243.7 -999
2003-02-24 08:05:20 51°11.663 2°46.487 246.8 13.8 243.9 -999
2003-02-24 08:05:25 51°11.655 2°46.46 247.9 13.8 244.8 -999
2003-02-24 08:05:30 51°11.647 2°46.432 248.3 13.8 245.4 -999
2003-02-24 08:05:35 51°11.64 2°46.404 249 13.8 246 -999
2003-02-24 08:05:40 51°11.632 2°46.376 249.5 13.8 246.6 -999
2003-02-24 08:05:45 51°11.625 2°46.348 250.4 13.8 247 -999
2003-02-24 08:05:50 51°11.618 2°46.32 251.1 13.8 248 -999
2003-02-24 08:05:55 51°11.611 2°46.291 251.3 13.8 248.6 -999
2003-02-24 08:06:00 51°11.604 2°46.263 251.6 13.8 248.7 -999
2003-02-24 08:06:05 51°11.598 2°46.234 251.7 13.8 249.1 -999
2003-02-24 08:06:10 51°11.591 2°46.206 251.5 13.8 248.9 -999
2003-02-24 08:06:15 51°11.584 2°46.178 251.4 13.8 248.8 -999
2003-02-24 08:06:20 51°11.577 2°46.149 251.4 13.8 248.8 -999
2003-02-24 08:06:25 51°11.571 2°46.12 251.3 13.8 248.7 -999
2003-02-24 08:06:30 51°11.564 2°46.092 251.4 13.8 248.6 -999
2003-02-24 08:06:35 51°11.557 2°46.063 251.4 13.8 248.9 -999
2003-02-24 08:06:40 51°11.55 2°46.035 251.4 13.8 248.8 -999
2003-02-24 08:06:45 51°11.544 2°46.006 251.7 13.8 249.1 -999
2003-02-24 08:06:50 51°11.537 2°45.978 251.4 13.8 248.9 -999
2003-02-24 08:06:55 51°11.53 2°45.95 251.5 13.8 249.1 -999
2003-02-24 08:07:00 51°11.524 2°45.922 251.5 13.8 249 -999
2003-02-24 08:07:05 51°11.517 2°45.894 251.5 13.8 249.1 -999
2003-02-24 08:07:10 51°11.51 2°45.865 251.5 13.8 249 -999
2003-02-24 08:07:15 51°11.503 2°45.837 251.6 13.8 249.1 -999
2003-02-24 08:07:20 51°11.496 2°45.808 251.6 13.8 249 -999
2003-02-24 08:07:25 51°11.489 2°45.78 251.6 13.8 249.1 -999
2003-02-24 08:07:30 51°11.482 2°45.751 251.6 13.8 249 -999
2003-02-24 08:07:35 51°11.476 2°45.722 251.7 13.8 249.1 -999
2003-02-24 08:07:40 51°11.469 2°45.694 251.4 13.8 249.1 -999
2003-02-24 08:07:45 51°11.462 2°45.666 251.2 13.8 248.9 -999
2003-02-24 08:07:50 51°11.455 2°45.637 250.8 13.8 248.7 -999
2003-02-24 08:07:55 51°11.448 2°45.609 250.6 13.8 248.1 -999
2003-02-24 08:08:00 51°11.441 2°45.581 250.3 13.8 248 -999
2003-02-24 08:08:05 51°11.433 2°45.553 250 13.8 247.5 -999
2003-02-24 08:08:10 51°11.426 2°45.525 250.2 13.8 247.8 -999
2003-02-24 08:08:15 51°11.419 2°45.497 250.3 13.8 247.8 -999
2003-02-24 08:08:20 51°11.412 2°45.469 250.5 13.8 248.1 -999
2003-02-24 08:08:25 51°11.405 2°45.441 250.6 13.8 248.3 -999
2003-02-24 08:08:30 51°11.398 2°45.413 250.8 13.8 248.3 -999
2003-02-24 08:08:35 51°11.391 2°45.384 250.8 13.8 248.5 -999
2003-02-24 08:08:40 51°11.384 2°45.356 250.4 13.8 248 -999
2003-02-24 08:08:45 51°11.377 2°45.328 250.4 13.8 248 -999
2003-02-24 08:08:50 51°11.369 2°45.3 250.2 13.8 247.8 -999
2003-02-24 08:08:55 51°11.362 2°45.271 250.2 13.8 247.8 -999
2003-02-24 08:09:00 51°11.355 2°45.243 250.3 13.8 247.8 -999
2003-02-24 08:09:05 51°11.348 2°45.215 250.5 13.8 248.3 -999
2003-02-24 08:09:10 51°11.341 2°45.186 250.5 13.8 248.3 -999
2003-02-24 08:09:15 51°11.334 2°45.158 250.5 13.8 248.3 -999
2003-02-24 08:09:20 51°11.327 2°45.13 250.4 13.8 248.1 -999
2003-02-24 08:09:25 51°11.32 2°45.102 250.1 13.8 248.1 -999
2003-02-24 08:09:30 51°11.312 2°45.074 250.1 13.8 247.8 -999
2003-02-24 08:09:35 51°11.305 2°45.045 250.6 13.9 248.2 -999
2003-02-24 08:09:39 51°11.299 2°45.022 250.6 13.9 248.2 -999
2003-02-24 08:09:45 51°11.291 2°44.988 250.6 13.8 248.3 -999
2003-02-24 08:09:50 51°11.284 2°44.96 250.4 13.8 248 -999
2003-02-24 08:09:55 51°11.277 2°44.932 250.1 13.8 247.9 -999
2003-02-24 08:10:00 51°11.269 2°44.904 250.1 13.8 247.7 -999
2003-02-24 08:10:05 51°11.262 2°44.875 250.4 13.8 248 -999
2003-02-24 08:10:10 51°11.255 2°44.847 250.4 13.8 248.1 -999
2003-02-24 08:10:15 51°11.248 2°44.819 250.7 13.8 248.3 -999
2003-02-24 08:10:19 51°11.242 2°44.796 250.5 13.8 248.3 -999
2003-02-24 08:10:25 51°11.234 2°44.762 250.4 13.8 248.1 -999
2003-02-24 08:10:30 51°11.227 2°44.734 250.4 13.8 248 -999
2003-02-24 08:10:35 51°11.22 2°44.706 250.5 13.8 248.1 -999
2003-02-24 08:10:40 51°11.212 2°44.677 250.5 13.8 248.2 -999
2003-02-24 08:10:45 51°11.205 2°44.649 250.2 13.8 247.9 -999
2003-02-24 08:10:50 51°11.198 2°44.621 250.3 13.8 247.9 -999
2003-02-24 08:10:55 51°11.19 2°44.593 250.4 13.8 247.9 -999
2003-02-24 08:11:00 51°11.183 2°44.563 250.4 13.8 247.9 -999
2003-02-24 08:11:05 51°11.175 2°44.534 250.4 13.8 248 -999
2003-02-24 08:11:10 51°11.168 2°44.506 250.7 13.8 248.1 -999
2003-02-24 08:11:15 51°11.161 2°44.477 250.7 13.8 248.1 -999
2003-02-24 08:11:20 51°11.154 2°44.449 250.3 13.8 248 -999
2003-02-24 08:11:25 51°11.146 2°44.421 250.3 13.8 247.7 -999
2003-02-24 08:11:30 51°11.139 2°44.393 250.1 13.8 247.6 -999
2003-02-24 08:11:35 51°11.132 2°44.365 250.1 13.8 247.5 -999
2003-02-24 08:11:40 51°11.124 2°44.337 250.2 13.8 247.6 -999
2003-02-24 08:11:45 51°11.117 2°44.308 250.4 13.8 247.7 -999
2003-02-24 08:11:50 51°11.11 2°44.28 250.5 13.8 247.9 -999
2003-02-24 08:11:55 51°11.103 2°44.252 250.7 13.8 248.1 -999
2003-02-24 08:12:00 51°11.096 2°44.223 250.3 13.9 247.9 -999
2003-02-24 08:12:05 51°11.088 2°44.195 250.4 13.9 247.7 -999
2003-02-24 08:12:10 51°11.081 2°44.167 250.4 13.8 248 -999
2003-02-24 08:12:15 51°11.074 2°44.138 250.6 13.9 248.1 -999
2003-02-24 08:12:20 51°11.067 2°44.109 250.8 13.9 248.3 -999
2003-02-24 08:12:25 51°11.059 2°44.081 250.5 13.9 248.1 -999
2003-02-24 08:12:30 51°11.052 2°44.053 250.4 13.9 247.9 -999
2003-02-24 08:12:35 51°11.045 2°44.024 250.4 13.9 247.9 -999
2003-02-24 08:12:40 51°11.038 2°43.996 250.6 13.9 247.9 -999
2003-02-24 08:12:45 51°11.031 2°43.968 250.6 13.9 248.1 -999
2003-02-24 08:12:50 51°11.024 2°43.939 250.4 13.9 247.9 -999
2003-02-24 08:12:55 51°11.016 2°43.911 250.4 13.9 247.9 -999
2003-02-24 08:13:00 51°11.009 2°43.883 250.6 13.9 248.1 -999
2003-02-24 08:13:05 51°11.002 2°43.854 250.6 13.9 248.1 -999
2003-02-24 08:13:10 51°10.995 2°43.826 250.4 13.8 248 -999
2003-02-24 08:13:15 51°10.988 2°43.798 250.4 13.9 247.9 -999
2003-02-24 08:13:20 51°10.98 2°43.769 250.6 13.9 248 -999
2003-02-24 08:13:25 51°10.973 2°43.741 250.5 13.9 248.1 -999
2003-02-24 08:13:30 51°10.966 2°43.713 250.4 13.9 248 -999
2003-02-24 08:13:35 51°10.959 2°43.684 250.6 13.9 248 -999
2003-02-24 08:13:40 51°10.951 2°43.656 250.6 13.8 248.1 -999
2003-02-24 08:13:45 51°10.944 2°43.627 250.4 13.9 247.9 -999
2003-02-24 08:13:50 51°10.936 2°43.599 250.3 13.9 247.9 -999
2003-02-24 08:13:55 51°10.929 2°43.57 250.2 13.9 247.7 -999
2003-02-24 08:14:00 51°10.922 2°43.542 250.4 13.9 247.8 -999
2003-02-24 08:14:05 51°10.915 2°43.513 250.7 13.9 248.2 -999
2003-02-24 08:14:10 51°10.907 2°43.485 250.4 13.9 248 -999
2003-02-24 08:14:15 51°10.9 2°43.458 250.3 13.9 247.9 -999
2003-02-24 08:14:20 51°10.893 2°43.43 250.4 13.9 247.8 -999
2003-02-24 08:14:25 51°10.886 2°43.401 250.6 13.9 248.2 -999
2003-02-24 08:14:30 51°10.879 2°43.373 250.6 13.8 248.1 -999
2003-02-24 08:14:35 51°10.872 2°43.344 250.5 13.8 248.1 -999
2003-02-24 08:14:40 51°10.865 2°43.316 250.4 13.8 247.9 -999
2003-02-24 08:14:45 51°10.857 2°43.288 250.3 13.8 247.8 -999
2003-02-24 08:14:50 51°10.85 2°43.259 250.6 13.8 248.2 -999
2003-02-24 08:14:55 51°10.843 2°43.231 250.5 13.8 248.2 -999
2003-02-24 08:14:59 51°10.837 2°43.209 250.4 13.8 248.1 -999
2003-02-24 08:15:05 51°10.829 2°43.175 250.4 13.8 248 -999
2003-02-24 08:15:10 51°10.821 2°43.146 250.2 13.8 247.8 -999
2003-02-24 08:15:15 51°10.814 2°43.118 250.3 13.8 247.8 -999
2003-02-24 08:15:20 51°10.807 2°43.089 250.5 13.9 248 -999
2003-02-24 08:15:25 51°10.8 2°43.061 250.8 13.9 248.3 -999
2003-02-24 08:15:30 51°10.793 2°43.033 250.5 13.9 248.1 -999
2003-02-24 08:15:35 51°10.786 2°43.005 250.3 13.8 247.9 -999
2003-02-24 08:15:40 51°10.778 2°42.977 250.2 13.9 247.7 -999
2003-02-24 08:15:45 51°10.771 2°42.948 250.1 13.8 247.6 -999
2003-02-24 08:15:50 51°10.764 2°42.92 250.1 14 247.8 -999
2003-02-24 08:15:55 51°10.757 2°42.892 250.3 13.9 247.9 -999
2003-02-24 08:16:00 51°10.75 2°42.864 250.6 13.9 248.2 -999
2003-02-24 08:16:05 51°10.743 2°42.835 250.7 13.8 248.3 -999
2003-02-24 08:16:10 51°10.735 2°42.807 250.4 13.8 248 -999
2003-02-24 08:16:15 51°10.728 2°42.779 250.1 13.8 247.8 -999
2003-02-24 08:16:20 51°10.721 2°42.75 250.4 13.8 247.9 -999
2003-02-24 08:16:25 51°10.714 2°42.722 250.4 13.8 248.1 -999
2003-02-24 08:16:30 51°10.707 2°42.694 250.6 13.8 248.4 -999
2003-02-24 08:16:35 51°10.7 2°42.666 250.4 13.8 248.3 -999
2003-02-24 08:16:40 51°10.692 2°42.638 250 13.8 247.8 -999
2003-02-24 08:16:45 51°10.685 2°42.609 250 13.8 247.6 -999
2003-02-24 08:16:50 51°10.677 2°42.581 250 13.8 247.4 -999
2003-02-24 08:16:55 51°10.67 2°42.553 250.2 13.8 247.5 -999
2003-02-24 08:17:00 51°10.663 2°42.525 250.4 13.9 247.6 -999
2003-02-24 08:17:05 51°10.656 2°42.496 250.7 13.8 248 -999
2003-02-24 08:17:10 51°10.648 2°42.468 250.3 13.8 247.7 -999
2003-02-24 08:17:15 51°10.641 2°42.44 250.4 13.8 247.7 -999
2003-02-24 08:17:20 51°10.634 2°42.412 250.4 13.8 247.7 -999
2003-02-24 08:17:25 51°10.627 2°42.384 250.5 13.8 247.9 -999
2003-02-24 08:17:30 51°10.62 2°42.355 250.6 13.8 247.9 -999
2003-02-24 08:17:35 51°10.613 2°42.327 250.4 13.8 247.9 -999
2003-02-24 08:17:40 51°10.605 2°42.299 250.1 13.8 247.5 -999
2003-02-24 08:17:45 51°10.598 2°42.271 250.2 13.8 247.6 -999
2003-02-24 08:17:50 51°10.591 2°42.243 250.6 13.8 247.7 -999
2003-02-24 08:17:55 51°10.584 2°42.215 250.7 13.8 247.8 -999
2003-02-24 08:18:00 51°10.576 2°42.186 250.3 13.8 247.6 -999
2003-02-24 08:18:05 51°10.569 2°42.158 250 13.8 247.3 -999
2003-02-24 08:18:10 51°10.562 2°42.13 249.9 13.8 247.3 -999
2003-02-24 08:18:15 51°10.554 2°42.102 249.9 13.8 247.2 -999
2003-02-24 08:18:20 51°10.547 2°42.074 250.2 13.8 247.5 -999
2003-02-24 08:18:25 51°10.54 2°42.046 250.4 13.8 247.9 -999
2003-02-24 08:18:30 51°10.533 2°42.017 250.5 13.8 248 -999
2003-02-24 08:18:35 51°10.525 2°41.989 250.4 13.8 247.9 -999
2003-02-24 08:18:40 51°10.518 2°41.961 250 13.8 247.7 -999
2003-02-24 08:18:45 51°10.511 2°41.933 250 13.8 247.5 -999
2003-02-24 08:18:50 51°10.504 2°41.904 250 13.8 247.6 -999
2003-02-24 08:18:55 51°10.497 2°41.876 250.3 13.8 247.7 -999
2003-02-24 08:19:00 51°10.489 2°41.848 250.3 13.8 247.7 -999
2003-02-24 08:19:05 51°10.482 2°41.819 250.6 13.8 248.2 -999
2003-02-24 08:19:10 51°10.475 2°41.791 250.6 13.9 248.2 -999
2003-02-24 08:19:15 51°10.468 2°41.763 250.6 13.9 248.3 -999
2003-02-24 08:19:20 51°10.461 2°41.734 250.4 13.9 248.1 -999
2003-02-24 08:19:25 51°10.454 2°41.706 250.4 13.9 248.1 -999
2003-02-24 08:19:30 51°10.447 2°41.677 250.6 13.9 248.5 -999
2003-02-24 08:19:35 51°10.439 2°41.649 250.4 13.9 248.4 -999
2003-02-24 08:19:40 51°10.432 2°41.62 250.3 13.9 248.3 -999
2003-02-24 08:19:45 51°10.425 2°41.592 250.3 13.9 248.3 -999
2003-02-24 08:19:50 51°10.418 2°41.563 250.3 13.9 248.1 -999
2003-02-24 08:19:55 51°10.411 2°41.534 250.4 13.9 248.2 -999
2003-02-24 08:20:00 51°10.404 2°41.505 250.2 13.9 248.2 -999
2003-02-24 08:20:05 51°10.396 2°41.477 250.1 13.9 247.9 -999
2003-02-24 08:20:10 51°10.389 2°41.448 250.4 14 248.2 -999
2003-02-24 08:20:15 51°10.382 2°41.42 250.6 14 248.3 -999
2003-02-24 08:20:20 51°10.375 2°41.391 250.5 13.9 248.4 -999
2003-02-24 08:20:25 51°10.368 2°41.363 250.3 14 248.3 -999
2003-02-24 08:20:30 51°10.36 2°41.334 250.3 14 248.1 -999
2003-02-24 08:20:35 51°10.353 2°41.306 250.3 14 248.2 -999
2003-02-24 08:20:40 51°10.346 2°41.277 250.3 13.9 248.2 -999
2003-02-24 08:20:45 51°10.339 2°41.249 250.4 14 248.2 -999
2003-02-24 08:20:50 51°10.331 2°41.22 250.3 14 247.9 -999
2003-02-24 08:20:55 51°10.324 2°41.191 250.4 14 248.1 -999
2003-02-24 08:21:00 51°10.317 2°41.163 250.6 14 248.3 -999
2003-02-24 08:21:05 51°10.309 2°41.134 250.4 14 248.3 -999
2003-02-24 08:21:10 51°10.302 2°41.106 250.2 14 248.1 -999
2003-02-24 08:21:15 51°10.295 2°41.077 250.1 14 247.9 -999
2003-02-24 08:21:20 51°10.288 2°41.049 250 13.9 247.9 -999
2003-02-24 08:21:25 51°10.28 2°41.02 250.3 14 248.2 -999
2003-02-24 08:21:30 51°10.273 2°40.991 250.4 14 248.4 -999
2003-02-24 08:21:35 51°10.266 2°40.962 250.6 14 248.5 -999
2003-02-24 08:21:40 51°10.259 2°40.934 250.5 14 248.6 -999
2003-02-24 08:21:45 51°10.252 2°40.905 250 14 248.3 -999
2003-02-24 08:21:50 51°10.245 2°40.877 249.7 14 248 -999
2003-02-24 08:21:55 51°10.237 2°40.848 249.8 14 247.8 -999
2003-02-24 08:22:00 51°10.23 2°40.82 250.2 14 248.1 -999
2003-02-24 08:22:05 51°10.223 2°40.791 250 14 248.1 -999
2003-02-24 08:22:10 51°10.216 2°40.762 250.2 14 248.4 -999
2003-02-24 08:22:15 51°10.209 2°40.733 250.6 14 248.4 -999
2003-02-24 08:22:20 51°10.202 2°40.704 250.8 14 248.7 -999
2003-02-24 08:22:25 51°10.194 2°40.676 250.2 14.1 248.4 -999
2003-02-24 08:22:30 51°10.187 2°40.647 250.2 14.1 248.2 -999
2003-02-24 08:22:35 51°10.18 2°40.618 250.4 14.1 248.1 -999
2003-02-24 08:22:40 51°10.173 2°40.589 250.4 14.1 248.4 -999
2003-02-24 08:22:45 51°10.166 2°40.56 250.5 14.1 248.4 -999
2003-02-24 08:22:50 51°10.159 2°40.531 250.6 14.1 248.5 -999
2003-02-24 08:22:55 51°10.152 2°40.502 250.5 14.1 248.5 -999
2003-02-24 08:23:00 51°10.144 2°40.473 250.2 14.1 248.2 -999
2003-02-24 08:23:05 51°10.137 2°40.444 250.2 14.1 248.2 -999
2003-02-24 08:23:10 51°10.13 2°40.416 250.3 14.1 248.2 -999
2003-02-24 08:23:15 51°10.123 2°40.386 250.6 14.1 248.5 -999
2003-02-24 08:23:20 51°10.116 2°40.358 250.6 14.1 248.6 -999
2003-02-24 08:23:25 51°10.108 2°40.329 250.5 14.1 248.6 -999
2003-02-24 08:23:30 51°10.101 2°40.3 250.4 14.1 248.3 -999
2003-02-24 08:23:35 51°10.094 2°40.271 250.1 14.1 248.3 -999
2003-02-24 08:23:40 51°10.087 2°40.242 250.2 14.1 248.1 -999
2003-02-24 08:23:45 51°10.08 2°40.213 250.4 14.1 248.4 -999
2003-02-24 08:23:50 51°10.072 2°40.184 250.4 14.1 248.3 -999
2003-02-24 08:23:55 51°10.065 2°40.155 250.6 14.1 248.4 -999
2003-02-24 08:24:00 51°10.058 2°40.126 250.4 14.1 248.3 -999
2003-02-24 08:24:05 51°10.05 2°40.098 250.2 14.1 248.1 -999
2003-02-24 08:24:10 51°10.043 2°40.068 250.5 14.1 248.2 -999
2003-02-24 08:24:15 51°10.036 2°40.04 250.6 14.1 248.5 -999
2003-02-24 08:24:20 51°10.029 2°40.011 250.3 14.1 248.4 -999
2003-02-24 08:24:25 51°10.021 2°39.982 250.2 14.1 248.1 -999
2003-02-24 08:24:30 51°10.014 2°39.953 250.4 14.1 248.1 -999
2003-02-24 08:24:35 51°10.007 2°39.924 250.8 14.1 248.4 -999
2003-02-24 08:24:40 51°10 2°39.895 250.7 14.1 248.5 -999
2003-02-24 08:24:45 51°9.993 2°39.866 250.6 14.1 248.3 -999
2003-02-24 08:24:50 51°9.985 2°39.837 250.6 14.1 248.4 -999
2003-02-24 08:24:55 51°9.978 2°39.808 250.4 14.1 248.1 -999
2003-02-24 08:25:00 51°9.971 2°39.779 250.6 14.1 248.4 -999
2003-02-24 08:25:05 51°9.963 2°39.75 250.4 14.1 248.3 -999
2003-02-24 08:25:10 51°9.956 2°39.721 250.1 14.1 248.1 -999
2003-02-24 08:25:15 51°9.949 2°39.692 250.3 14.1 248.1 -999
2003-02-24 08:25:20 51°9.941 2°39.663 250.4 14.1 248.4 -999
2003-02-24 08:25:25 51°9.934 2°39.634 250.8 14.1 248.5 -999
2003-02-24 08:25:30 51°9.927 2°39.605 251.3 14.1 249 -999
2003-02-24 08:25:35 51°9.921 2°39.576 252 14.1 249.4 -999
2003-02-24 08:25:40 51°9.914 2°39.546 252.5 14.1 250 -999
2003-02-24 08:25:45 51°9.907 2°39.517 252.7 14.1 250.1 -999
2003-02-24 08:25:50 51°9.901 2°39.488 252.7 14.1 250.3 -999
2003-02-24 08:25:55 51°9.894 2°39.458 252.5 14.1 250.2 -999
2003-02-24 08:26:00 51°9.887 2°39.429 252.3 14.1 249.9 -999
2003-02-24 08:26:04 51°9.882 2°39.405 252.5 14.1 250.1 -999
2003-02-24 08:26:10 51°9.874 2°39.37 252.5 14.1 250.1 -999
2003-02-24 08:26:15 51°9.867 2°39.341 252.5 14.1 250.1 -999
2003-02-24 08:26:20 51°9.86 2°39.311 252.7 14.1 250.3 -999
2003-02-24 08:26:25 51°9.854 2°39.282 252.8 14.1 250.2 -999
2003-02-24 08:26:30 51°9.847 2°39.253 252.6 14.1 250.2 -999
2003-02-24 08:26:35 51°9.84 2°39.224 252.5 14.1 250 -999
2003-02-24 08:26:40 51°9.834 2°39.194 252.5 14.2 250 -999
2003-02-24 08:26:45 51°9.827 2°39.165 252.2 14.1 250 -999
2003-02-24 08:26:50 51°9.82 2°39.136 252.2 14.1 249.8 -999
2003-02-24 08:26:55 51°9.813 2°39.106 252.5 14.1 250.2 -999
2003-02-24 08:27:00 51°9.807 2°39.077 252.5 14.1 250.1 -999
2003-02-24 08:27:05 51°9.8 2°39.048 252.3 14.1 249.9 -999
2003-02-24 08:27:10 51°9.793 2°39.019 252.1 14.1 249.5 -999
2003-02-24 08:27:15 51°9.786 2°38.989 252.3 14.1 249.7 -999
2003-02-24 08:27:20 51°9.78 2°38.96 252.5 14.1 250 -999
2003-02-24 08:27:25 51°9.773 2°38.931 252.9 14.1 250.3 -999
2003-02-24 08:27:30 51°9.766 2°38.901 252.5 14.1 250.3 -999
2003-02-24 08:27:35 51°9.76 2°38.872 252.3 14.1 250 -999
2003-02-24 08:27:40 51°9.753 2°38.843 252.2 14.1 249.9 -999
2003-02-24 08:27:45 51°9.746 2°38.814 252.2 14.1 249.9 -999
2003-02-24 08:27:50 51°9.74 2°38.785 252.5 14.1 250 -999
2003-02-24 08:27:55 51°9.733 2°38.756 252.5 14.1 250 -999
2003-02-24 08:28:00 51°9.726 2°38.727 252.2 14.1 249.9 -999
2003-02-24 08:28:05 51°9.719 2°38.697 251.9 14.1 249.7 -999
2003-02-24 08:28:10 51°9.713 2°38.668 252.5 14.1 250 -999
2003-02-24 08:28:15 51°9.706 2°38.639 252.3 14.1 249.9 -999
2003-02-24 08:28:20 51°9.699 2°38.61 252.2 14.1 249.9 -999
2003-02-24 08:28:25 51°9.692 2°38.58 252.4 14.1 249.8 -999
2003-02-24 08:28:30 51°9.686 2°38.551 252.5 14.1 250 -999
2003-02-24 08:28:35 51°9.679 2°38.522 252.4 14.1 249.9 -999
2003-02-24 08:28:40 51°9.672 2°38.493 252.3 14.1 249.9 -999
2003-02-24 08:28:45 51°9.666 2°38.464 252.3 14.1 249.8 -999
2003-02-24 08:28:50 51°9.659 2°38.435 252.3 14.1 249.8 -999
2003-02-24 08:28:55 51°9.652 2°38.406 252.2 14.1 249.8 -999
2003-02-24 08:29:00 51°9.645 2°38.376 252.2 14.1 249.7 -999
2003-02-24 08:29:05 51°9.639 2°38.347 252.2 14.1 249.9 -999
2003-02-24 08:29:10 51°9.632 2°38.318 252.3 14.1 249.9 -999
2003-02-24 08:29:15 51°9.625 2°38.289 252.4 14.1 250.1 -999
2003-02-24 08:29:20 51°9.618 2°38.26 252.3 14 249.9 -999
2003-02-24 08:29:25 51°9.612 2°38.231 252.3 14.1 250.2 -999
2003-02-24 08:29:30 51°9.605 2°38.202 253.3 14.1 250.4 -999
2003-02-24 08:29:35 51°9.599 2°38.172 253.7 14 251.2 -999
2003-02-24 08:29:40 51°9.593 2°38.143 254.1 14.1 251.6 -999
2003-02-24 08:29:45 51°9.587 2°38.113 254.6 14.1 252 -999
2003-02-24 08:29:50 51°9.581 2°38.083 254.8 14.1 252.3 -999
2003-02-24 08:29:55 51°9.575 2°38.054 254.9 14.1 252.3 -999
2003-02-24 08:30:00 51°9.569 2°38.024 254.8 14.1 252.2 -999
2003-02-24 08:30:05 51°9.563 2°37.995 254.5 14.1 252 -999
2003-02-24 08:30:10 51°9.557 2°37.965 254.5 14.1 252.1 -999
2003-02-24 08:30:15 51°9.551 2°37.936 254.4 14.1 251.9 -999
2003-02-24 08:30:20 51°9.545 2°37.906 254.5 14.1 252.1 -999
2003-02-24 08:30:25 51°9.539 2°37.877 254.5 14.1 252 -999
2003-02-24 08:30:30 51°9.533 2°37.847 254.4 14.1 252 -999
2003-02-24 08:30:35 51°9.527 2°37.817 254.4 14.1 251.9 -999
2003-02-24 08:30:40 51°9.521 2°37.788 254.4 14.1 251.9 -999
2003-02-24 08:30:45 51°9.515 2°37.758 254.5 14.1 252 -999
2003-02-24 08:30:50 51°9.508 2°37.728 254.4 14.1 251.8 -999
2003-02-24 08:30:55 51°9.502 2°37.699 254.1 14.1 251.8 -999
2003-02-24 08:31:00 51°9.496 2°37.67 254 14.1 251.6 -999
2003-02-24 08:31:05 51°9.49 2°37.64 254.2 14.1 251.7 -999
2003-02-24 08:31:10 51°9.484 2°37.61 254.6 14.1 252 -999
2003-02-24 08:31:15 51°9.478 2°37.58 254.6 14.1 252.1 -999
2003-02-24 08:31:20 51°9.472 2°37.551 254.6 14.1 252.2 -999
2003-02-24 08:31:25 51°9.466 2°37.521 254.7 14.1 252.3 -999
2003-02-24 08:31:30 51°9.46 2°37.491 254.5 14.2 252.1 -999
2003-02-24 08:31:35 51°9.453 2°37.462 254.1 14.2 251.7 -999
2003-02-24 08:31:40 51°9.447 2°37.432 254.3 14.2 251.9 -999
2003-02-24 08:31:45 51°9.441 2°37.402 254.5 14.2 252 -999
2003-02-24 08:31:50 51°9.435 2°37.372 254.3 14.2 252 -999
2003-02-24 08:31:55 51°9.429 2°37.343 254 14.2 251.7 -999
2003-02-24 08:32:00 51°9.423 2°37.313 254 14.2 251.6 -999
2003-02-24 08:32:05 51°9.417 2°37.284 254 14.2 251.6 -999
2003-02-24 08:32:10 51°9.411 2°37.254 254.1 14.2 251.7 -999
2003-02-24 08:32:15 51°9.405 2°37.224 254.6 14.2 251.9 -999
2003-02-24 08:32:20 51°9.399 2°37.195 254.5 14.2 252 -999
2003-02-24 08:32:25 51°9.393 2°37.165 254.1 14.2 251.8 -999
2003-02-24 08:32:30 51°9.387 2°37.135 254 14.2 251.6 -999
2003-02-24 08:32:35 51°9.38 2°37.106 253.9 14.2 251.4 -999
2003-02-24 08:32:40 51°9.374 2°37.076 254.2 14.2 251.5 -999
2003-02-24 08:32:45 51°9.368 2°37.046 254.4 14.2 251.9 -999
2003-02-24 08:32:50 51°9.362 2°37.016 254.5 14.2 252 -999
2003-02-24 08:32:55 51°9.356 2°36.987 254.4 14.2 252.1 -999
2003-02-24 08:33:00 51°9.35 2°36.957 254.3 14.2 251.9 -999
2003-02-24 08:33:05 51°9.344 2°36.927 254.1 14.2 251.7 -999
2003-02-24 08:33:10 51°9.338 2°36.897 254 14.2 251.5 -999
2003-02-24 08:33:15 51°9.332 2°36.868 254 14.2 251.4 -999
2003-02-24 08:33:20 51°9.326 2°36.838 254.2 14.2 251.7 -999
2003-02-24 08:33:25 51°9.319 2°36.808 254.6 14.2 251.9 -999
2003-02-24 08:33:30 51°9.314 2°36.778 254.7 14.2 252.2 -999
2003-02-24 08:33:35 51°9.307 2°36.748 254.3 14.2 252.1 -999
2003-02-24 08:33:40 51°9.301 2°36.719 254.2 14.2 251.9 -999
2003-02-24 08:33:45 51°9.295 2°36.689 254.3 14.1 251.9 -999
2003-02-24 08:33:50 51°9.289 2°36.66 254.3 13.9 251.9 -999
2003-02-24 08:33:55 51°9.283 2°36.632 254 13.8 251.9 -999
2003-02-24 08:34:00 51°9.277 2°36.603 254 13.7 251.6 -999
2003-02-24 08:34:05 51°9.272 2°36.575 254 13.6 251.7 -999
2003-02-24 08:34:10 51°9.266 2°36.547 253.5 13.5 251.4 -999
2003-02-24 08:34:15 51°9.26 2°36.519 253.9 13.4 251.3 -999
2003-02-24 08:34:20 51°9.254 2°36.491 254.4 13.4 252 -999
2003-02-24 08:34:25 51°9.248 2°36.463 254.6 13.3 252.4 -999
2003-02-24 08:34:30 51°9.242 2°36.435 254.4 13.3 252.3 -999
2003-02-24 08:34:35 51°9.236 2°36.407 254.2 13.3 252.2 -999
2003-02-24 08:34:40 51°9.23 2°36.379 254 13.2 252.1 -999
2003-02-24 08:34:45 51°9.225 2°36.351 254.1 13.3 252.1 -999
2003-02-24 08:34:50 51°9.219 2°36.323 254.5 13.2 252.4 -999
2003-02-24 08:34:55 51°9.213 2°36.295 254.1 13.2 252.3 -999
2003-02-24 08:35:00 51°9.207 2°36.267 254.2 13.3 252.1 -999
2003-02-24 08:35:05 51°9.202 2°36.239 254.3 13.3 252.4 -999
2003-02-24 08:35:10 51°9.196 2°36.211 254.5 13.3 252.5 -999
2003-02-24 08:35:15 51°9.191 2°36.184 254.6 13.3 252.6 -999
2003-02-24 08:35:20 51°9.185 2°36.156 254.2 13.3 252.5 -999
2003-02-24 08:35:25 51°9.18 2°36.128 253.9 13.2 252.2 -999
2003-02-24 08:35:30 51°9.174 2°36.1 254 13.3 252.2 -999
2003-02-24 08:35:35 51°9.168 2°36.072 254.3 13.3 252.4 -999
2003-02-24 08:35:40 51°9.163 2°36.044 254.3 13.3 252.5 -999
2003-02-24 08:35:45 51°9.158 2°36.016 254.4 13.3 252.7 -999
2003-02-24 08:35:50 51°9.152 2°35.988 254.4 13.3 252.7 -999
2003-02-24 08:35:55 51°9.147 2°35.96 254.6 13.3 252.9 -999
2003-02-24 08:36:00 51°9.142 2°35.933 254.6 13.3 252.8 -999
2003-02-24 08:36:05 51°9.137 2°35.905 254.5 13.3 252.9 -999
2003-02-24 08:36:10 51°9.131 2°35.877 254.1 13.3 252.7 -999
2003-02-24 08:36:15 51°9.126 2°35.849 253.9 13.3 252.3 -999
2003-02-24 08:36:20 51°9.12 2°35.821 254.1 13.3 252.3 -999
2003-02-24 08:36:25 51°9.114 2°35.794 254 13.1 252.2 -999
2003-02-24 08:36:30 51°9.109 2°35.768 254 12.6 252.4 -999
2003-02-24 08:36:35 51°9.104 2°35.744 253.8 12.1 252.4 -999
2003-02-24 08:36:40 51°9.1 2°35.721 253.5 11.3 252.1 -999
2003-02-24 08:36:45 51°9.095 2°35.699 252.9 10.9 251.8 -999
2003-02-24 08:36:50 51°9.09 2°35.677 252.3 10.4 251.3 -999
2003-02-24 08:36:55 51°9.086 2°35.656 251.6 10.1 250.9 -999
2003-02-24 08:37:00 51°9.081 2°35.636 251.1 9.8 250.4 -999
2003-02-24 08:37:05 51°9.076 2°35.617 250.4 9.5 249.8 -999
2003-02-24 08:37:10 51°9.072 2°35.598 249.9 9.3 249.5 -999
2003-02-24 08:37:15 51°9.067 2°35.58 249.3 9.1 248.8 -999
2003-02-24 08:37:20 51°9.063 2°35.562 248.9 8.9 248.3 -999
2003-02-24 08:37:25 51°9.059 2°35.544 249.4 8.7 248.5 -999
2003-02-24 08:37:30 51°9.055 2°35.527 251.1 8.6 249.5 -999
2003-02-24 08:37:35 51°9.052 2°35.509 254.2 8.5 251.8 -999
2003-02-24 08:37:40 51°9.049 2°35.491 258.1 8.4 254.8 -999
2003-02-24 08:37:44 51°9.048 2°35.477 261.8 8.3 257.4 -999
2003-02-24 08:37:50 51°9.046 2°35.455 264.1 8.1 261.1 -999
2003-02-24 08:37:55 51°9.045 2°35.439 265.5 7.9 262.9 -999
2003-02-24 08:38:00 51°9.044 2°35.422 266.3 7.6 263.9 -999
2003-02-24 08:38:05 51°9.043 2°35.407 267 7.3 264.7 -999
2003-02-24 08:38:10 51°9.042 2°35.392 267.4 7 265.5 -999
2003-02-24 08:38:15 51°9.041 2°35.377 267.5 6.8 266 -999
2003-02-24 08:38:20 51°9.04 2°35.363 267 6.5 266 -999
2003-02-24 08:38:25 51°9.04 2°35.349 266.3 6.3 265.7 -999
2003-02-24 08:38:30 51°9.039 2°35.336 265.2 6.2 264.9 -999
2003-02-24 08:38:35 51°9.038 2°35.323 264 6 264.1 -999
2003-02-24 08:38:40 51°9.037 2°35.31 262.8 5.8 263.3 -999
2003-02-24 08:38:45 51°9.036 2°35.298 262 5.7 262.6 -999
2003-02-24 08:38:50 51°9.035 2°35.286 261.2 5.5 261.9 -999
2003-02-24 08:38:55 51°9.034 2°35.275 260.8 5.4 261.3 -999
2003-02-24 08:39:00 51°9.033 2°35.263 260.5 5.3 261 -999
2003-02-24 08:39:05 51°9.031 2°35.252 260.2 5.2 261 -999
2003-02-24 08:39:09 51°9.03 2°35.243 260.1 5.1 260.8 -999
2003-02-24 08:39:15 51°9.029 2°35.23 260 5 260.9 -999
2003-02-24 08:39:20 51°9.028 2°35.22 260.1 4.9 260.8 -999
2003-02-24 08:39:25 51°9.027 2°35.209 260.6 4.8 261.2 -999
2003-02-24 08:39:30 51°9.026 2°35.199 261.3 4.8 261.6 -999
2003-02-24 08:39:35 51°9.025 2°35.189 262.3 4.7 262.4 -999
2003-02-24 08:39:40 51°9.025 2°35.178 263.4 4.6 263 -999
2003-02-24 08:39:45 51°9.024 2°35.168 264.5 4.6 264.1 -999
2003-02-24 08:39:50 51°9.024 2°35.159 265.5 4.5 265.3 -999
2003-02-24 08:39:55 51°9.023 2°35.149 267.1 4.5 266.6 -999
2003-02-24 08:40:00 51°9.023 2°35.139 268.5 4.4 267.4 -999
2003-02-24 08:40:05 51°9.023 2°35.129 270 4.4 269.2 -999
2003-02-24 08:40:10 51°9.023 2°35.12 271.6 4.3 270.3 -999
2003-02-24 08:40:15 51°9.024 2°35.11 273.2 4.3 271.8 -999
2003-02-24 08:40:20 51°9.024 2°35.101 274.5 4.3 273.3 -999
2003-02-24 08:40:25 51°9.024 2°35.092 275.2 4.2 274 -999
2003-02-24 08:40:30 51°9.025 2°35.083 275.7 4.2 274.8 -999
2003-02-24 08:40:35 51°9.025 2°35.074 276 4.1 275.4 -999
2003-02-24 08:40:40 51°9.026 2°35.065 276.2 4 276 -999
2003-02-24 08:40:45 51°9.027 2°35.057 276.4 3.9 276.7 -999
2003-02-24 08:40:50 51°9.027 2°35.049 276.5 3.6 277.3 -999
2003-02-24 08:40:55 51°9.028 2°35.042 277 3.3 278.6 -999
2003-02-24 08:41:00 51°9.029 2°35.036 277.9 3 279.5 -999
2003-02-24 08:41:05 51°9.03 2°35.031 279.2 2.6 281.6 -999
2003-02-24 08:41:10 51°9.03 2°35.027 281.2 2.2 282.9 -999
2003-02-24 08:41:15 51°9.031 2°35.025 283.1 1.6 286.6 -999
2003-02-24 08:41:20 51°9.031 2°35.023 284 0.9 290.4 -999
2003-02-24 08:41:25 51°9.031 2°35.022 284.9 0.7 295.1 -999
2003-02-24 08:41:30 51°9.032 2°35.021 285.6 0.6 297.7 -999
2003-02-24 08:41:35 51°9.032 2°35.02 286.2 0.6 298.5 -999
2003-02-24 08:41:40 51°9.033 2°35.019 286.6 0.6 300.5 -999
2003-02-24 08:41:45 51°9.033 2°35.017 287.4 0.7 305.2 -999
2003-02-24 08:41:50 51°9.034 2°35.016 288 0.7 304.4 -999
2003-02-24 08:41:55 51°9.035 2°35.015 288.7 0.7 306.1 -999
2003-02-24 08:42:00 51°9.035 2°35.013 289.3 0.7 306 -999
2003-02-24 08:42:05 51°9.036 2°35.012 289.8 0.8 308 -999
2003-02-24 08:42:10 51°9.036 2°35.011 290.3 0.8 307.4 -999
2003-02-24 08:42:15 51°9.037 2°35.01 290.8 0.8 308.8 -999
2003-02-24 08:42:20 51°9.038 2°35.008 291.2 0.8 307.8 -999
2003-02-24 08:42:25 51°9.039 2°35.007 291.7 0.8 308.9 -999
2003-02-24 08:42:30 51°9.04 2°35.005 292.2 0.9 308.7 -999
2003-02-24 08:42:35 51°9.04 2°35.004 292.5 0.9 309.3 -999
2003-02-24 08:42:40 51°9.041 2°35.002 292.7 0.9 308.7 -999
2003-02-24 08:42:45 51°9.042 2°35.001 293 0.9 309.2 -999
2003-02-24 08:42:50 51°9.043 2°34.999 293.2 0.9 310.6 -999
2003-02-24 08:42:55 51°9.043 2°34.997 293.3 0.9 309.7 -999
2003-02-24 08:43:00 51°9.044 2°34.996 293.3 0.9 309.9 -999
2003-02-24 08:43:05 51°9.045 2°34.994 293.3 1 310.1 -999
2003-02-24 08:43:10 51°9.046 2°34.992 293.2 1 310.5 -999
2003-02-24 08:43:15 51°9.047 2°34.991 292.9 1 310.4 -999
2003-02-24 08:43:20 51°9.048 2°34.989 292.7 1 310.4 -999
2003-02-24 08:43:25 51°9.048 2°34.987 292.4 1 310.3 -999
2003-02-24 08:43:30 51°9.049 2°34.986 292.1 1 310.3 -999
2003-02-24 08:43:35 51°9.05 2°34.984 291.7 1 310.2 -999
2003-02-24 08:43:40 51°9.051 2°34.982 291.2 1 310 -999
2003-02-24 08:43:45 51°9.052 2°34.98 290.7 1.1 310.3 -999
2003-02-24 08:43:50 51°9.053 2°34.979 290.3 1.1 310 -999
2003-02-24 08:43:55 51°9.054 2°34.977 289.5 1.1 310.5 -999
2003-02-24 08:43:59 51°9.055 2°34.975 289 1.1 309.1 -999
2003-02-24 08:44:05 51°9.056 2°34.973 288.4 1.1 309.2 -999
2003-02-24 08:44:10 51°9.057 2°34.971 287.4 1.1 308.1 -999
2003-02-24 08:44:15 51°9.058 2°34.969 286.6 1.1 307.8 -999
2003-02-24 08:44:20 51°9.059 2°34.967 285.9 1.1 307.7 -999
2003-02-24 08:44:25 51°9.06 2°34.965 285.1 1.1 306.9 -999
2003-02-24 08:44:30 51°9.061 2°34.963 284.1 1.1 306.3 -999
2003-02-24 08:44:35 51°9.062 2°34.961 283.3 1.1 306.5 -999
2003-02-24 08:44:40 51°9.063 2°34.959 282.3 1.1 305.7 -999
2003-02-24 08:44:45 51°9.063 2°34.957 281.6 1.1 305.2 -999
2003-02-24 08:44:50 51°9.064 2°34.955 280.8 1.1 304.3 -999
2003-02-24 08:44:55 51°9.065 2°34.953 279.9 1.1 304.1 -999
2003-02-24 08:45:00 51°9.066 2°34.951 279.4 1.1 304 -999
2003-02-24 08:45:05 51°9.067 2°34.949 278.6 1.1 302.5 -999
2003-02-24 08:45:10 51°9.068 2°34.947 277.8 1.1 302.2 -999
2003-02-24 08:45:15 51°9.069 2°34.945 276.9 1.1 301.8 -999
2003-02-24 08:45:20 51°9.069 2°34.943 276.1 1.1 302.5 -999
2003-02-24 08:45:25 51°9.07 2°34.941 275.1 1.1 301 -999
2003-02-24 08:45:30 51°9.071 2°34.938 274.5 1.1 300.8 -999
2003-02-24 08:45:35 51°9.072 2°34.936 273.9 1.1 300.5 -999
2003-02-24 08:45:40 51°9.073 2°34.934 273.3 1.1 301.5 -999
2003-02-24 08:45:45 51°9.073 2°34.932 272.5 1.1 300.9 -999
2003-02-24 08:45:50 51°9.074 2°34.93 271.8 1.1 299.9 -999
2003-02-24 08:45:55 51°9.075 2°34.928 271.4 1.1 299.6 -999
2003-02-24 08:45:59 51°9.075 2°34.926 270.8 1.1 298.9 -999
2003-02-24 08:46:05 51°9.076 2°34.924 270.2 1.1 298.9 -999
2003-02-24 08:46:10 51°9.077 2°34.922 269.7 1.1 298 -999
2003-02-24 08:46:15 51°9.078 2°34.92 269.2 1.1 298 -999
2003-02-24 08:46:20 51°9.078 2°34.917 268.6 1.1 296.5 -999
2003-02-24 08:46:25 51°9.079 2°34.915 268 1.1 296.8 -999
2003-02-24 08:46:30 51°9.08 2°34.913 267.6 1.1 296.3 -999
2003-02-24 08:46:35 51°9.08 2°34.911 267 1.1 296.6 -999
2003-02-24 08:46:40 51°9.081 2°34.909 266.5 1.1 296 -999
2003-02-24 08:46:45 51°9.082 2°34.907 266 1.1 295.4 -999
2003-02-24 08:46:50 51°9.082 2°34.905 265.6 1.1 295.3 -999
2003-02-24 08:46:55 51°9.083 2°34.903 265.1 1.1 295 -999
2003-02-24 08:47:00 51°9.084 2°34.901 264.8 1 295 -999
2003-02-24 08:47:05 51°9.084 2°34.899 264.2 1 294.3 -999
2003-02-24 08:47:10 51°9.085 2°34.897 264 1 294 -999
2003-02-24 08:47:15 51°9.086 2°34.895 263.4 1 293.6 -999
2003-02-24 08:47:20 51°9.086 2°34.893 263 1 293.5 -999
2003-02-24 08:47:25 51°9.087 2°34.89 262.5 1 293.2 -999
2003-02-24 08:47:30 51°9.087 2°34.888 262 1 293.1 -999
2003-02-24 08:47:35 51°9.087 2°34.886 261.7 1 293.2 -999
2003-02-24 08:47:40 51°9.088 2°34.884 261.3 1 292.8 -999
2003-02-24 08:47:45 51°9.088 2°34.882 260.9 1 292.9 -999
2003-02-24 08:47:50 51°9.089 2°34.88 260.6 1 292.8 -999
2003-02-24 08:47:55 51°9.09 2°34.878 260.2 1 292.3 -999